Time;durP1;ratioP1;P1;durP2;ratioP2;P2;SDS_P1;SDS_P2;PMS_P1;PMS_P2;Temp;Humidity;BMP_temperature;BMP_pressure;BME280_temperature;BME280_humidity;BME280_pressure;Samples;Min_cycle;Max_cycle;Signal;HPM_P1;HPM_P2
2022/06/16 00:00:41;;;;;;;1.58;1.05;;;;;;;13.85;59.01;100766.00;6109002;23;20010;-75
2022/06/16 00:03:08;;;;;;;2.53;1.05;;;;;;;13.77;58.67;100757.22;6104875;23;20009;-75
2022/06/16 00:05:35;;;;;;;3.05;1.10;;;;;;;13.91;58.92;100775.88;6131291;23;20002;-75
2022/06/16 00:08:06;;;;;;;3.35;1.52;;;;;;;13.98;58.69;100776.41;6129710;23;20332;-74
2022/06/16 00:10:32;;;;;;;8.32;1.23;;;;;;;13.96;59.51;100778.63;6104847;23;20006;-73
2022/06/16 00:12:58;;;;;;;2.35;1.05;;;;;;;13.90;59.25;100783.31;6081106;23;20503;-73
2022/06/16 00:15:27;;;;;;;3.22;1.17;;;;;;;13.86;59.29;100782.22;6106161;23;20002;-75
2022/06/16 00:17:53;;;;;;;1.65;1.08;;;;;;;13.96;59.14;100786.88;6110281;23;19994;-75
2022/06/16 00:20:18;;;;;;;2.15;0.95;;;;;;;13.93;59.48;100787.41;6107576;23;20079;-73
2022/06/16 00:22:44;;;;;;;1.77;0.90;;;;;;;13.86;59.43;100790.47;6109613;23;20021;-74
2022/06/16 00:25:13;;;;;;;6.70;1.25;;;;;;;13.78;59.76;100797.38;6136728;23;20005;-76
2022/06/16 00:27:39;;;;;;;3.38;1.60;;;;;;;13.64;60.17;100801.78;6133313;23;20005;-76
2022/06/16 00:30:05;;;;;;;2.83;1.60;;;;;;;13.46;61.07;100799.59;6131634;23;20001;-74
2022/06/16 00:32:31;;;;;;;8.57;1.67;;;;;;;13.35;61.46;100801.53;6106585;23;20404;-72
2022/06/16 00:34:57;;;;;;;4.68;1.65;;;;;;;13.19;61.64;100806.19;6081675;23;20013;-74
2022/06/16 00:37:26;;;;;;;3.05;1.17;;;;;;;13.14;61.88;100815.25;6133301;23;20088;-75
2022/06/16 00:39:51;;;;;;;2.95;1.45;;;;;;;12.97;61.86;100799.03;6129451;23;20305;-74
2022/06/16 00:42:22;;;;;;;4.22;1.58;;;;;;;12.91;62.64;100806.44;6107648;23;19986;-73
2022/06/16 00:44:57;;;;;;;4.32;1.73;;;;;;;12.93;62.72;100819.88;6105519;23;20006;-72
2022/06/16 00:47:34;;;;;;;1.95;1.50;;;;;;;12.75;62.73;100813.00;6106586;23;20010;-73
2022/06/16 00:50:12;;;;;;;4.95;1.60;;;;;;;12.66;63.41;100809.94;6134317;23;20133;-75
2022/06/16 00:52:41;;;;;;;1.60;0.93;;;;;;;12.58;63.70;100821.44;6134776;23;20001;-75
2022/06/16 00:55:19;;;;;;;2.25;1.35;;;;;;;12.38;63.42;100801.09;6108816;23;20013;-75
2022/06/16 00:58:02;;;;;;;2.40;1.10;;;;;;;12.28;63.54;100798.31;6134775;23;20028;-74
2022/06/16 01:00:36;;;;;;;1.65;1.27;;;;;;;12.25;63.59;100803.50;6107129;23;20010;-76
2022/06/16 01:03:12;;;;;;;4.90;1.30;;;;;;;12.26;64.05;100814.19;6129472;23;20010;-73
2022/06/16 01:05:39;;;;;;;4.80;1.63;;;;;;;12.23;64.90;100806.50;6105599;23;20117;-74
2022/06/16 01:08:06;;;;;;;3.80;1.52;;;;;;;12.27;65.44;100817.78;6132158;23;20013;-73
2022/06/16 01:10:42;;;;;;;2.88;1.55;;;;;;;12.16;65.86;100805.91;6103985;23;20005;-72
2022/06/16 01:16:52;;;;;;;3.83;1.58;;;;;;;12.11;66.15;100825.09;6131334;23;20017;-72
2022/06/16 01:20:08;;;;;;;1.70;1.10;;;;;;;11.96;66.42;100812.13;6043720;23;20014;-73
2022/06/16 01:22:57;;;;;;;;;;;;;;;12.01;66.81;100823.94;6119386;23;20109;-75
2022/06/16 01:26:05;;;;;;;2.88;1.33;;;;;;;11.99;66.67;100831.63;6074323;23;19905;-74
2022/06/16 01:29:15;;;;;;;;;;;;;;;;;;;;;
2022/06/16 01:31:57;;;;;;;5.93;1.58;;;;;;;11.86;67.23;100818.34;6132738;23;20021;-75
2022/06/16 01:34:55;;;;;;;1.45;1.17;;;;;;;11.87;67.12;100834.53;6106697;23;20002;-75
2022/06/16 01:37:36;;;;;;;4.75;1.10;;;;;;;11.78;66.52;100821.59;6130947;23;20065;-74
2022/06/16 01:40:33;;;;;;;5.72;1.45;;;;;;;11.84;67.28;100842.44;6104645;23;20010;-72
2022/06/16 01:43:28;;;;;;;3.78;1.13;;;;;;;11.85;66.97;100849.59;6105817;23;20516;-75
2022/06/16 01:46:04;;;;;;;2.97;1.30;;;;;;;11.71;67.49;100838.28;6130341;23;20049;-75
2022/06/16 01:48:35;;;;;;;4.57;1.40;;;;;;;11.67;67.16;100837.94;6132311;23;20060;-76
2022/06/16 01:51:39;;;;;;;4.10;1.40;;;;;;;11.72;67.58;100844.56;6129479;23;20006;-75
2022/06/16 01:54:23;;;;;;;3.10;1.30;;;;;;;11.62;68.10;100828.88;6068327;23;20018;-74
2022/06/16 01:56:56;;;;;;;4.13;1.60;;;;;;;11.75;68.02;100850.31;6101995;23;20013;-74
2022/06/16 01:59:56;;;;;;;;;;;;;;;;;;;;;
2022/06/16 02:02:42;;;;;;;;;;;;;;;;;;;;;
2022/06/16 02:05:25;;;;;;;1.52;1.00;;;;;;;11.55;68.05;100823.63;6080137;23;20048;-73
2022/06/16 02:08:17;;;;;;;1.38;1.00;;;;;;;11.69;68.23;100845.91;6105220;23;20002;-74
2022/06/16 02:11:52;;;;;;;;;;;;;;;;;;;;;
2022/06/16 02:15:04;;;;;;;;;;;;;;;;;;;;;
2022/06/16 02:17:37;;;;;;;;;;;;;;;;;;;;;
2022/06/16 02:20:11;;;;;;;2.83;1.80;;;;;;;11.78;68.89;100859.94;6105898;23;20077;-73
2022/06/16 02:22:36;;;;;;;4.47;2.30;;;;;;;11.85;69.61;100876.97;6129671;23;20033;-76
2022/06/16 02:25:02;;;;;;;3.25;1.58;;;;;;;11.87;69.54;100885.75;6077872;23;20010;-72
2022/06/16 02:27:35;;;;;;;3.50;1.50;;;;;;;11.73;69.70;100870.88;6101418;23;20061;-73
2022/06/16 02:30:00;;;;;;;7.43;2.00;;;;;;;11.66;70.14;100865.63;6103660;23;20002;-71
2022/06/16 02:32:39;;;;;;;3.70;2.35;;;;;;;11.66;70.76;100880.13;6103452;23;20036;-76
2022/06/16 02:35:47;;;;;;;3.53;1.80;;;;;;;11.55;70.92;100883.91;6126459;23;20096;-75
2022/06/16 02:39:18;;;;;;;;;;;;;;;;;;;;;
2022/06/16 02:46:05;;;;;;;3.33;1.83;;;;;;;11.28;72.29;100881.19;5978526;23;20006;-73
2022/06/16 02:49:24;;;;;;;3.65;1.35;;;;;;;11.22;71.82;100890.44;6127379;23;20030;-74
2022/06/16 02:53:03;;;;;;;;;;;;;;;;;;;;;
2022/06/16 02:55:48;;;;;;;;;;;;;;;;;;;;;
2022/06/16 02:58:24;;;;;;;3.38;1.60;;;;;;;11.07;72.68;100891.09;6125708;23;20093;-75
2022/06/16 03:01:28;;;;;;;9.07;1.83;;;;;;;10.93;72.84;100866.06;6101040;23;20033;-73
2022/06/16 03:04:41;;;;;;;5.32;1.88;;;;;;;10.98;72.82;100877.88;6073843;23;20006;-74
2022/06/16 03:07:23;;;;;;;;;;;;;;;;;;;;;
2022/06/16 03:09:53;;;;;;;5.45;2.17;;;;;;;10.99;72.67;100893.22;6128059;23;20081;-75
2022/06/16 03:12:48;;;;;;;3.45;1.65;;;;;;;10.72;73.10;100865.00;6089974;23;20456;-74
2022/06/16 03:15:38;;;;;;;5.43;2.20;;;;;;;10.68;73.59;100855.66;6070607;23;20089;-75
2022/06/16 03:18:11;;;;;;;3.08;1.70;;;;;;;10.69;73.67;100860.03;6095888;23;20017;-75
2022/06/16 03:21:47;;;;;;;5.90;1.90;;;;;;;10.79;73.80;100882.88;6071896;23;20010;-73
2022/06/16 03:24:12;;;;;;;4.03;1.90;;;;;;;10.87;74.33;100895.28;6095427;23;20032;-73
2022/06/16 03:26:52;;;;;;;5.70;2.00;;;;;;;10.86;74.52;100892.78;6073338;23;20442;-75
2022/06/16 03:29:54;;;;;;;11.23;1.98;;;;;;;10.83;74.79;100889.50;6075120;23;20014;-73
2022/06/16 03:32:20;;;;;;;3.58;2.15;;;;;;;10.80;74.99;100894.63;6075759;23;20014;-74
2022/06/16 03:34:54;;;;;;;3.00;1.98;;;;;;;10.63;75.19;100886.50;6071302;23;20052;-73
2022/06/16 03:37:30;;;;;;;;;;;;;;;;;;;;;
2022/06/16 03:40:13;;;;;;;;;;;;;;;;;;;;;
2022/06/16 03:42:50;;;;;;;1.92;1.15;;;;;;;10.78;73.80;100905.84;6098738;23;20058;-72
2022/06/16 03:45:51;;;;;;;1.58;1.25;;;;;;;10.79;74.18;100899.28;6098273;23;20000;-76
2022/06/16 03:48:17;;;;;;;2.45;1.13;;;;;;;10.70;73.86;100881.66;5982255;24;20014;-77
2022/06/16 03:51:38;;;;;;;1.42;0.85;;;;;;;10.66;73.72;100855.94;5984798;23;20364;-77
2022/06/16 03:54:26;;;;;;;1.48;0.82;;;;;;;10.86;73.77;100876.38;5875657;24;20026;-77
2022/06/16 03:57:40;;;;;;;1.35;0.98;;;;;;;11.09;73.61;100897.97;5833523;24;20010;-76
2022/06/16 04:00:31;;;;;;;1.42;1.08;;;;;;;10.94;73.25;100857.59;5875850;24;20022;-77
2022/06/16 04:07:04;;;;;;;2.17;1.50;;;;;;;11.43;73.70;100899.66;5985490;24;20127;-76
2022/06/16 04:10:14;;;;;;;2.53;1.52;;;;;;;11.33;73.77;100890.28;5903659;24;20060;-79
2022/06/16 04:33:54;;;;;;;2.45;1.15;;;;;;;11.60;74.19;100916.78;5744401;25;20027;-75
2022/06/16 05:10:55;;;;;;;;;;;;;;;;;;;;;
2022/06/16 05:13:30;;;;;;;3.00;1.60;;;;;;;11.60;74.96;100957.88;6320624;22;20027;-73
2022/06/16 05:16:35;;;;;;;2.72;1.30;;;;;;;11.87;74.62;100979.78;6319167;22;20006;-74
2022/06/16 05:19:24;;;;;;;4.72;1.90;;;;;;;11.83;74.37;100950.41;6271987;22;20339;-73
2022/06/16 05:22:00;;;;;;;;;;;;;;;;;;;;;
2022/06/16 05:24:29;;;;;;;8.77;3.13;;;;;;;12.23;75.06;100976.50;6320617;22;20042;-73
2022/06/16 05:26:58;;;;;;;5.65;2.20;;;;;;;12.29;75.05;100975.44;6292407;22;20003;-74
2022/06/16 05:29:36;;;;;;;5.60;2.55;;;;;;;12.51;74.47;100991.78;6292915;22;19995;-77
2022/06/16 05:32:12;;;;;;;3.00;1.75;;;;;;;12.40;74.00;100955.22;6320154;22;20074;-74
2022/06/16 05:34:45;;;;;;;8.52;2.40;;;;;;;12.64;74.58;100954.78;6293909;22;20087;-74
2022/06/16 05:37:10;;;;;;;3.97;2.33;;;;;;;12.84;73.54;100970.53;6292631;22;20018;-74
2022/06/16 05:39:36;;;;;;;3.92;2.20;;;;;;;12.95;73.88;100978.81;6295332;22;20011;-74
2022/06/16 05:42:12;;;;;;;7.60;2.72;;;;;;;13.06;73.94;100994.22;6294284;22;20068;-76
2022/06/16 05:44:40;;;;;;;3.58;2.50;;;;;;;13.16;74.11;100993.44;6296793;22;20053;-76
2022/06/16 05:47:11;;;;;;;3.47;2.50;;;;;;;13.26;73.45;101005.28;6267956;22;20014;-76
2022/06/16 05:49:42;;;;;;;4.82;1.98;;;;;;;13.24;74.04;100990.16;6291727;22;20007;-76
2022/06/16 05:56:07;;;;;;;;;;;;;;;;;;;;;
2022/06/16 06:24:05;;;;;;;2.45;1.60;;;;;;;14.79;70.32;100986.34;6250252;23;20034;-74
2022/06/16 06:26:30;;;;;;;4.50;2.30;;;;;;;15.01;69.75;100990.69;6222032;23;20020;-73
2022/06/16 06:28:56;;;;;;;3.03;1.98;;;;;;;15.13;69.43;100971.88;6248361;23;20038;-74
2022/06/16 06:31:24;;;;;;;2.05;1.50;;;;;;;15.35;68.66;100987.19;6248004;23;20018;-73
2022/06/16 06:33:55;;;;;;;2.08;1.50;;;;;;;15.53;68.29;100983.75;6222795;23;20089;-74
2022/06/16 06:36:23;;;;;;;3.80;2.15;;;;;;;15.83;68.12;100992.97;6221695;23;20012;-74
2022/06/16 06:38:48;;;;;;;5.25;2.78;;;;;;;15.82;67.61;100984.97;6223642;23;20448;-74
2022/06/16 06:41:14;;;;;;;5.85;2.67;;;;;;;15.81;67.53;100975.91;6221108;23;20012;-73
2022/06/16 06:43:49;;;;;;;3.00;2.10;;;;;;;15.99;67.10;100987.31;6248412;23;20016;-76
2022/06/16 06:47:19;;;;;;;3.15;2.00;;;;;;;16.05;66.89;100955.84;6220186;23;20008;-75
2022/06/16 06:49:45;;;;;;;7.93;3.42;;;;;;;16.10;66.38;100971.50;6201169;23;20004;-74
2022/06/16 06:52:11;;;;;;;3.17;2.17;;;;;;;16.23;66.43;100974.41;6245148;23;20024;-74
2022/06/16 06:55:15;;;;;;;3.47;2.15;;;;;;;16.39;66.27;100968.75;6219896;23;20007;-72
2022/06/16 06:57:53;;;;;;;;;;;;;;;;;;;;;
2022/06/16 07:00:23;;;;;;;2.47;1.67;;;;;;;16.70;65.78;100982.19;6249821;23;20060;-73
2022/06/16 07:02:51;;;;;;;2.45;1.35;;;;;;;16.80;65.06;100971.03;6253121;23;20000;-73
2022/06/16 07:05:26;;;;;;;1.60;1.13;;;;;;;16.98;65.27;100982.44;6249374;23;20004;-72
2022/06/16 07:08:38;;;;;;;;;;;;;;;;;;;;;
2022/06/16 07:11:28;;;;;;;;;;;;;;;;;;;;;
2022/06/16 07:13:59;;;;;;;4.00;1.67;;;;;;;17.05;63.93;100950.56;6249094;23;20063;-72
2022/06/16 07:19:35;;;;;;;4.53;2.80;;;;;;;17.37;64.14;100978.63;6090655;23;20072;-75
2022/06/16 07:22:02;;;;;;;4.97;2.28;;;;;;;17.57;63.55;100980.28;6217297;23;20016;-74
2022/06/16 07:27:39;;;;;;;5.22;1.83;;;;;;;17.88;63.07;100966.75;6227627;23;20020;-72
2022/06/16 07:30:13;;;;;;;4.05;2.38;;;;;;;18.00;62.65;100968.25;6219826;23;20004;-75
2022/06/16 07:36:00;;;;;;;3.50;2.05;;;;;;;18.24;61.47;100952.34;6190972;23;20016;-74
2022/06/16 07:38:47;;;;;;;;;;;;;;;;;;;;;
2022/06/16 07:49:39;;;;;;;4.72;2.17;;;;;;;19.14;59.57;100962.19;6106409;23;20010;-74
2022/06/16 07:52:05;;;;;;;3.17;2.38;;;;;;;19.07;58.80;100932.16;6098280;23;20058;-73
2022/06/16 07:54:36;;;;;;;3.63;2.60;;;;;;;19.19;58.36;100943.50;6124890;23;20276;-76
2022/06/16 07:57:02;;;;;;;5.05;2.28;;;;;;;19.33;57.63;100960.13;6214578;23;20031;-74
2022/06/16 07:59:27;;;;;;;3.55;1.90;;;;;;;19.41;57.10;100966.06;6219382;23;20001;-75
2022/06/16 08:01:55;;;;;;;6.43;2.17;;;;;;;19.42;56.58;100981.53;6219187;23;20016;-74
2022/06/16 08:04:21;;;;;;;3.38;2.35;;;;;;;19.47;56.52;101006.41;6221281;23;20017;-76
2022/06/16 08:07:16;;;;;;;;;;;;;;;;;;;;;
2022/06/16 08:09:52;;;;;;;2.75;1.70;;;;;;;19.60;56.18;100963.91;6218136;23;20040;-75
2022/06/16 08:12:19;;;;;;;9.45;2.70;;;;;;;19.90;55.30;100983.75;6216821;23;19996;-74
2022/06/16 08:14:53;;;;;;;5.25;2.65;;;;;;;19.96;55.18;100988.06;6242337;23;20011;-73
2022/06/16 08:17:32;;;;;;;8.07;3.30;;;;;;;20.04;54.63;100992.81;6216723;23;20375;-73
2022/06/16 08:20:03;;;;;;;6.57;2.70;;;;;;;20.10;54.17;100982.41;6189173;23;20230;-73
2022/06/16 08:22:34;;;;;;;6.03;2.30;;;;;;;20.30;53.05;100997.72;6205367;23;20009;-73
2022/06/16 08:25:00;;;;;;;4.45;2.33;;;;;;;20.47;52.64;100996.19;6189573;23;20352;-73
2022/06/16 08:27:41;;;;;;;3.45;1.83;;;;;;;20.46;51.82;100972.31;6218734;23;20075;-73
2022/06/16 08:30:14;;;;;;;2.75;1.25;;;;;;;20.81;51.27;100972.47;6217212;23;19997;-74
2022/06/16 08:32:43;;;;;;;2.20;1.52;;;;;;;20.89;50.06;100957.78;6216077;23;20436;-73
2022/06/16 08:35:12;;;;;;;3.95;1.70;;;;;;;21.25;49.00;100965.06;6188377;23;20008;-75
2022/06/16 08:37:37;;;;;;;4.28;1.55;;;;;;;21.37;47.56;100968.00;6191896;23;20028;-74
2022/06/16 08:40:05;;;;;;;3.28;1.48;;;;;;;21.49;46.67;100970.13;6190792;23;20055;-74
2022/06/16 08:42:50;;;;;;;1.90;1.17;;;;;;;21.65;46.61;100972.47;6215762;23;20040;-73
2022/06/16 08:45:34;;;;;;;2.25;1.17;;;;;;;21.85;46.29;100984.91;6218740;23;20027;-74
2022/06/16 08:48:02;;;;;;;9.07;2.03;;;;;;;21.93;45.91;100967.34;6218963;23;20004;-73
2022/06/16 08:50:56;;;;;;;4.82;1.40;;;;;;;21.97;45.09;100973.91;6219380;23;20007;-74
2022/06/16 08:53:31;;;;;;;;;;;;;;;22.06;45.26;100976.69;6160986;23;20006;-73
2022/06/16 08:56:06;;;;;;;4.55;1.52;;;;;;;22.12;44.51;100970.63;6211548;23;19931;-72
2022/06/16 08:59:24;;;;;;;4.18;1.88;;;;;;;22.21;43.89;100984.50;6217039;23;20004;-74
2022/06/16 09:02:15;;;;;;;3.63;1.58;;;;;;;22.42;44.42;100993.00;6175982;23;20004;-73
2022/06/16 09:04:46;;;;;;;7.53;2.20;;;;;;;22.43;44.08;100997.41;6190837;23;20420;-73
2022/06/16 09:07:43;;;;;;;4.85;2.28;;;;;;;22.13;44.83;100997.28;6217770;23;20050;-74
2022/06/16 09:10:28;;;;;;;6.47;1.85;;;;;;;22.00;45.82;100997.50;6189214;23;20013;-73
2022/06/16 09:13:24;;;;;;;2.58;1.63;;;;;;;22.19;45.82;100991.56;6217401;23;20015;-72
2022/06/16 09:27:14;;;;;;;;;;;;;;;;;;;;;
2022/06/16 09:30:49;;;;;;;;;;;;;;;;;;;;;
2022/06/16 09:34:05;;;;;;;3.38;1.63;;;;;;;23.42;44.23;101015.00;6098854;23;20025;-76
2022/06/16 09:37:17;;;;;;;3.92;1.52;;;;;;;23.24;43.33;101002.31;5993465;23;20034;-72
2022/06/16 09:40:25;;;;;;;;;;;;;;;;;;;;;
2022/06/16 09:43:10;;;;;;;2.70;1.52;;;;;;;23.35;42.60;101014.72;6190366;23;20051;-73
2022/06/16 09:52:43;;;;;;;;;;;;;;;;;;;;;
2022/06/16 09:56:20;;;;;;;2.30;0.80;;;;;;;23.73;38.03;101019.34;6174352;23;20031;-75
2022/06/16 09:58:54;;;;;;;1.48;1.00;;;;;;;23.91;38.56;101008.06;6186992;23;20012;-72
2022/06/16 10:01:24;;;;;;;4.82;1.20;;;;;;;24.19;35.90;101009.06;6186703;23;20335;-72
2022/06/16 10:03:49;;;;;;;4.05;1.35;;;;;;;24.34;37.14;101012.38;6188067;23;20067;-74
2022/06/16 10:06:53;;;;;;;;;;;;;;;;;;;;;
2022/06/16 10:10:06;;;;;;;2.22;1.42;;;;;;;25.26;36.03;101030.66;6188326;23;20083;-74
2022/06/16 10:13:11;;;;;;;2.42;1.13;;;;;;;26.65;34.30;101040.63;6162464;23;20009;-72
2022/06/16 10:15:46;;;;;;;2.50;1.23;;;;;;;27.73;31.64;101025.56;6044756;23;20009;-75
2022/06/16 10:18:27;;;;;;;;;;;;;;;;;;;;;
2022/06/16 10:20:53;;;;;;;1.95;0.93;;;;;;;29.81;29.31;101037.94;6208138;23;20857;-73
2022/06/16 10:23:27;;;;;;;1.80;1.30;;;;;;;31.09;28.06;101040.47;6216702;23;20024;-72
2022/06/16 10:26:13;;;;;;;3.15;1.40;;;;;;;32.27;27.22;101052.78;6218800;23;20030;-76
2022/06/16 10:29:00;;;;;;;3.05;1.40;;;;;;;32.50;26.01;101050.38;6190484;23;20024;-74
2022/06/16 10:32:21;;;;;;;1.98;1.20;;;;;;;32.57;26.35;101046.75;6193055;23;20000;-76
2022/06/16 10:34:52;;;;;;;2.45;1.38;;;;;;;33.17;25.57;101042.31;6161177;23;20015;-74
2022/06/16 10:37:27;;;;;;;5.93;1.40;;;;;;;33.56;24.32;101024.44;6218219;23;20528;-76
2022/06/16 10:44:29;;;;;;;;;;;;;;;;;;;;;
2022/06/16 10:47:16;;;;;;;2.78;1.13;;;;;;;33.36;24.40;101062.97;6148372;23;20010;-73
2022/06/16 10:49:47;;;;;;;4.80;1.10;;;;;;;33.73;23.57;101038.94;6201950;23;20008;-75
2022/06/16 10:52:39;;;;;;;1.98;1.13;;;;;;;33.73;23.65;101051.09;6217502;23;20024;-73
2022/06/16 10:55:20;;;;;;;2.30;0.98;;;;;;;32.58;23.92;101062.53;6197395;23;20016;-73
2022/06/16 10:58:31;;;;;;;3.30;1.30;;;;;;;31.81;24.60;101043.72;6192775;23;19988;-77
2022/06/16 11:01:53;;;;;;;2.88;1.30;;;;;;;31.70;25.56;101056.19;6186321;23;20340;-74
2022/06/16 11:04:43;;;;;;;3.13;0.93;;;;;;;31.66;25.66;101050.53;6189028;23;20450;-74
2022/06/16 11:10:40;;;;;;;2.47;1.25;;;;;;;31.17;24.52;101043.34;6056651;23;20101;-75
2022/06/16 11:13:17;;;;;;;2.22;0.73;;;;;;;31.21;23.59;101038.53;6043292;23;19999;-73
2022/06/16 11:17:07;;;;;;;2.28;0.98;;;;;;;31.72;23.65;101062.25;6067258;23;20015;-76
2022/06/16 11:19:15;;;;;;;3.35;1.25;;;;;;;32.02;23.32;101061.97;6065757;23;20007;-74
2022/06/16 11:21:46;;;;;;;1.42;0.70;;;;;;;31.79;21.24;101074.41;6106351;23;20024;-74
2022/06/16 11:24:35;;;;;;;1.05;0.50;;;;;;;31.65;21.73;101063.84;6211518;23;20037;-76
2022/06/16 11:27:10;;;;;;;0.98;0.80;;;;;;;32.06;22.09;101054.31;6187571;23;20043;-75
2022/06/16 11:29:36;;;;;;;1.90;0.80;;;;;;;32.46;21.92;101051.59;6185018;23;20009;-75
2022/06/16 11:32:20;;;;;;;1.40;0.60;;;;;;;32.91;21.48;101059.75;6187526;23;20001;-75
2022/06/16 11:34:47;;;;;;;1.58;0.70;;;;;;;33.82;20.79;101058.38;6212252;23;20005;-74
2022/06/16 11:37:38;;;;;;;1.52;0.85;;;;;;;34.55;20.20;101068.94;6187942;23;20332;-73
2022/06/16 11:40:54;;;;;;;1.95;0.90;;;;;;;35.93;19.42;101048.53;6185515;23;20084;-74
2022/06/16 11:43:36;;;;;;;1.55;0.82;;;;;;;36.99;17.70;101064.44;6175122;23;20113;-74
2022/06/16 11:46:14;;;;;;;1.95;0.80;;;;;;;38.40;16.24;101053.84;6183514;23;20011;-73
2022/06/16 11:48:59;;;;;;;3.55;0.80;;;;;;;38.48;16.10;101063.06;6186367;23;20087;-73
2022/06/16 11:51:30;;;;;;;1.85;0.73;;;;;;;37.58;17.44;101053.56;6158389;23;20016;-76
2022/06/16 11:54:28;;;;;;;4.13;0.75;;;;;;;37.09;17.29;101042.69;6182342;23;20016;-74
2022/06/16 11:57:07;;;;;;;0.95;0.68;;;;;;;36.62;17.95;101034.09;6185758;23;20420;-76
2022/06/16 11:59:57;;;;;;;1.48;0.40;;;;;;;36.76;18.44;101039.56;6184788;23;20001;-74
2022/06/16 12:03:01;;;;;;;1.00;0.50;;;;;;;36.31;17.08;101046.38;6187268;23;20004;-76
2022/06/16 12:05:37;;;;;;;;;;;;;;;37.15;16.76;101034.41;6173893;23;20031;-75
2022/06/16 12:08:12;;;;;;;0.57;0.45;;;;;;;38.83;16.22;101034.84;6185131;23;19904;-74
2022/06/16 12:10:45;;;;;;;0.88;0.30;;;;;;;39.95;15.53;101037.44;6184105;23;20082;-74
2022/06/16 12:13:37;;;;;;;1.35;0.40;;;;;;;40.98;15.47;101037.44;6186178;23;20067;-75
2022/06/16 12:16:25;;;;;;;1.45;0.63;;;;;;;42.19;14.37;101031.25;6188898;23;20008;-73
2022/06/16 12:19:12;;;;;;;0.98;0.65;;;;;;;42.25;13.72;101016.25;6186921;23;20004;-74
2022/06/16 12:42:09;;;;;;;0.90;0.50;;;;;;;41.48;13.11;100969.59;6186166;23;20016;-74
2022/06/16 12:44:39;;;;;;;2.15;0.70;;;;;;;40.88;13.77;100941.09;6184444;23;20005;-73
2022/06/16 12:47:17;;;;;;;0.55;0.47;;;;;;;42.15;13.55;100938.66;6185197;23;20008;-77
2022/06/16 12:49:54;;;;;;;0.93;0.57;;;;;;;43.34;12.06;100944.16;6185552;23;20001;-74
2022/06/16 12:52:26;;;;;;;1.85;0.70;;;;;;;43.82;12.18;100944.34;6159682;23;20088;-75
2022/06/16 12:55:04;;;;;;;0.47;0.40;;;;;;;45.67;11.47;100952.88;6187421;23;20028;-73
2022/06/16 12:57:37;;;;;;;1.05;0.50;;;;;;;49.07;10.35;100951.81;6188733;23;20005;-75
2022/06/16 13:00:12;;;;;;;0.75;0.50;;;;;;;52.10;8.30;100951.50;6160215;23;20008;-76
2022/06/16 13:02:44;;;;;;;1.00;0.60;;;;;;;53.22;7.47;100925.00;6179176;23;20021;-75
2022/06/16 13:05:10;;;;;;;1.35;0.60;;;;;;;52.91;7.12;100925.78;6157387;23;20095;-74
2022/06/16 13:07:47;;;;;;;1.33;0.55;;;;;;;52.02;7.41;100938.91;6187595;23;20012;-74
2022/06/16 13:10:15;;;;;;;0.85;0.60;;;;;;;52.27;7.65;100957.13;6187260;23;20068;-75
2022/06/16 13:12:48;;;;;;;0.45;0.25;;;;;;;54.27;7.19;100973.06;6184659;23;20063;-75
2022/06/16 13:15:13;;;;;;;0.80;0.50;;;;;;;55.56;6.82;100972.19;6186542;23;20001;-75
2022/06/16 13:17:48;;;;;;;0.65;0.40;;;;;;;56.29;6.91;101001.66;6160928;23;20626;-76
2022/06/16 13:20:17;;;;;;;0.40;0.30;;;;;;;57.75;5.53;100991.66;6161124;23;20023;-77
2022/06/16 13:22:48;;;;;;;1.58;0.70;;;;;;;57.36;4.27;100987.16;6203609;23;20095;-75
2022/06/16 13:25:40;;;;;;;0.90;0.60;;;;;;;54.33;5.34;100973.72;6217758;23;20023;-73
2022/06/16 13:28:12;;;;;;;1.63;0.63;;;;;;;53.24;6.25;100967.50;6193143;23;19999;-75
2022/06/16 13:30:41;;;;;;;1.30;0.60;;;;;;;53.81;6.45;100950.56;6220979;23;20008;-74
2022/06/16 13:33:06;;;;;;;0.75;0.50;;;;;;;54.36;6.64;100947.09;6216766;23;20033;-75
2022/06/16 13:35:40;;;;;;;1.27;0.73;;;;;;;55.28;6.46;100953.19;6218666;23;20015;-75
2022/06/16 13:38:09;;;;;;;1.73;0.90;;;;;;;55.84;5.73;100947.19;6192282;23;20008;-78
2022/06/16 13:41:24;;;;;;;1.15;0.63;;;;;;;55.38;5.08;100961.47;6216744;23;20440;-77
2022/06/16 13:44:10;;;;;;;6.85;0.85;;;;;;;54.54;4.93;100959.97;6151087;23;20426;-76
2022/06/16 13:46:54;;;;;;;2.55;0.95;;;;;;;53.13;5.44;100957.56;6217081;23;20008;-75
2022/06/16 13:49:53;;;;;;;1.95;0.75;;;;;;;52.84;5.90;100960.09;6190065;23;20043;-74
2022/06/16 13:52:32;;;;;;;0.77;0.52;;;;;;;53.79;6.01;100955.38;6188553;23;20004;-75
2022/06/16 13:55:25;;;;;;;1.23;0.90;;;;;;;54.02;5.83;100952.81;6192270;23;20032;-72
2022/06/16 13:58:20;;;;;;;2.22;0.93;;;;;;;53.67;5.95;100963.56;6190330;23;20004;-71
2022/06/16 14:01:23;;;;;;;5.05;1.00;;;;;;;53.72;6.17;100966.41;6217018;23;20008;-72
2022/06/16 14:03:58;;;;;;;1.75;1.05;;;;;;;52.30;6.51;100952.34;6192315;23;20004;-71
2022/06/16 14:06:51;;;;;;;1.30;0.70;;;;;;;51.66;7.23;100953.56;6216656;23;20000;-73
2022/06/16 14:09:27;;;;;;;1.52;0.73;;;;;;;52.06;6.95;100956.84;6194151;23;20104;-71
2022/06/16 14:12:06;;;;;;;1.65;0.65;;;;;;;52.95;6.52;100953.28;6190293;23;20012;-72
2022/06/16 14:14:53;;;;;;;2.03;0.70;;;;;;;53.90;6.17;100950.13;6217857;23;20011;-72
2022/06/16 14:17:43;;;;;;;1.00;0.65;;;;;;;54.34;5.98;100940.19;6189538;23;20078;-72
2022/06/16 14:20:34;;;;;;;;;;;;;;;;;;;;;
2022/06/16 14:23:09;;;;;;;2.00;0.65;;;;;;;55.54;4.54;100942.69;6216727;23;20483;-72
2022/06/16 14:25:47;;;;;;;3.08;0.77;;;;;;;53.90;5.44;100935.50;6189065;23;20047;-71
2022/06/16 14:28:20;;;;;;;0.95;0.63;;;;;;;53.20;5.99;100938.59;6213130;23;19989;-72
2022/06/16 14:30:56;;;;;;;1.65;0.90;;;;;;;53.78;5.83;100934.13;6216452;23;20008;-71
2022/06/16 14:33:45;;;;;;;2.53;0.70;;;;;;;54.61;6.28;100934.31;6216013;23;19996;-72
2022/06/16 14:36:37;;;;;;;0.70;0.60;;;;;;;56.75;5.47;100947.47;6217106;23;20013;-72
2022/06/16 14:39:05;;;;;;;1.23;0.80;;;;;;;57.70;4.74;100962.44;6193052;23;20004;-71
2022/06/16 14:41:54;;;;;;;1.48;0.90;;;;;;;56.88;4.67;100964.13;6219478;23;20222;-75
2022/06/16 14:44:42;;;;;;;1.20;0.80;;;;;;;53.26;6.03;100953.09;6220211;23;20016;-73
2022/06/16 14:47:38;;;;;;;0.70;0.63;;;;;;;49.23;7.64;100946.56;6191876;23;20035;-71
2022/06/16 14:50:09;;;;;;;1.50;0.73;;;;;;;45.92;10.28;100946.44;6216930;23;19991;-71
2022/06/16 14:52:40;;;;;;;2.38;1.02;;;;;;;44.28;11.62;100929.72;6193528;23;20435;-71
2022/06/16 14:55:14;;;;;;;1.50;0.70;;;;;;;43.29;12.32;100942.75;6194023;23;20008;-69
2022/06/16 14:57:48;;;;;;;2.35;0.73;;;;;;;41.59;13.23;100925.34;6193470;23;20432;-71
2022/06/16 15:00:31;;;;;;;1.58;0.93;;;;;;;41.54;13.54;100943.19;6219739;23;20438;-75
2022/06/16 15:03:04;;;;;;;2.90;0.98;;;;;;;41.04;14.39;100940.94;6193634;23;20004;-71
2022/06/16 15:05:33;;;;;;;2.05;1.00;;;;;;;41.83;13.51;100946.53;6218656;23;20054;-70
2022/06/16 15:08:05;;;;;;;0.98;0.65;;;;;;;44.35;12.09;100950.81;6219256;23;20007;-71
2022/06/16 15:10:33;;;;;;;1.55;0.82;;;;;;;46.28;10.67;100934.88;6217592;23;20008;-72
2022/06/16 15:13:07;;;;;;;2.42;0.88;;;;;;;47.19;9.81;100939.63;6213657;23;20362;-71
2022/06/16 15:15:35;;;;;;;1.75;0.88;;;;;;;47.70;9.51;100942.97;6213279;23;20004;-71
2022/06/16 15:18:13;;;;;;;1.92;1.00;;;;;;;47.70;9.16;100946.66;6216337;23;20008;-73
2022/06/16 15:20:55;;;;;;;1.67;0.75;;;;;;;46.78;9.54;100957.09;6192048;23;20386;-70
2022/06/16 15:23:24;;;;;;;1.85;0.95;;;;;;;45.82;9.69;100942.88;6191467;23;20387;-72
2022/06/16 15:25:53;;;;;;;1.70;0.77;;;;;;;46.14;9.92;100939.41;6190827;23;20368;-71
2022/06/16 15:28:22;;;;;;;1.52;0.82;;;;;;;46.97;9.46;100954.69;6191879;23;20467;-72
2022/06/16 15:30:51;;;;;;;3.13;0.90;;;;;;;46.40;9.50;100950.28;6190539;23;20061;-71
2022/06/16 15:36:14;;;;;;;4.07;0.80;;;;;;;44.24;10.53;100940.63;6191862;23;20023;-71
2022/06/16 15:38:45;;;;;;;1.52;1.05;;;;;;;42.46;11.87;100943.53;6190621;23;20015;-72
2022/06/16 15:41:28;;;;;;;2.15;0.95;;;;;;;41.43;12.55;100935.81;6186984;23;20111;-71
2022/06/16 15:44:04;;;;;;;2.58;1.00;;;;;;;41.50;12.31;100958.47;6190858;23;20040;-71
2022/06/16 15:46:31;;;;;;;1.88;0.88;;;;;;;40.07;13.33;100947.94;6190138;23;20317;-71
2022/06/16 15:49:00;;;;;;;1.27;0.88;;;;;;;38.55;14.79;100945.75;6167207;23;20714;-71
2022/06/16 15:51:28;;;;;;;2.80;1.30;;;;;;;38.67;14.13;100944.25;6190135;23;20017;-73
2022/06/16 15:53:55;;;;;;;1.88;0.95;;;;;;;37.66;15.38;100943.78;6166945;23;20012;-70